createdAt,value
2023-05-05T00:00:58.119Z,97099.31
2023-05-05T00:03:25.575Z,97104.97
2023-05-05T00:05:54.468Z,97098.84
2023-05-05T00:08:22.166Z,97102.53
2023-05-05T00:10:50.678Z,97095.59
2023-05-05T00:13:18.081Z,97091.06
2023-05-05T00:15:46.212Z,97092.44
2023-05-05T00:18:15.982Z,97090.88
2023-05-05T00:20:43.732Z,97087.91
2023-05-05T00:23:10.725Z,97089.38
2023-05-05T00:25:37.736Z,97085.22
2023-05-05T00:28:04.952Z,97088.44
2023-05-05T00:30:31.962Z,97087.09
2023-05-05T00:32:59.031Z,97093.78
2023-05-05T00:35:27.314Z,97088.28
2023-05-05T00:37:55.129Z,97092.69
2023-05-05T00:40:22.194Z,97086.91
2023-05-05T00:42:52.503Z,97088.75
2023-05-05T00:45:19.961Z,97090.31
2023-05-05T00:47:52.540Z,97090.38
2023-05-05T00:50:26.855Z,97095.47
2023-05-05T00:52:58.807Z,97101.13
2023-05-05T00:55:26.275Z,97105.19
2023-05-05T00:57:53.488Z,97102.06
2023-05-05T01:00:20.475Z,97092.75
2023-05-05T01:02:47.628Z,97091.94
2023-05-05T01:05:15.155Z,97091.09
2023-05-05T01:08:19.611Z,97092.16
2023-05-05T01:10:52.592Z,97089.59
2023-05-05T01:13:31.866Z,97088.00
2023-05-05T01:16:12.650Z,97088.28
2023-05-05T01:19:05.880Z,97088.56
2023-05-05T01:21:36.330Z,97084.75
2023-05-05T01:24:45.169Z,97085.25
2023-05-05T01:27:55.718Z,97071.84
2023-05-05T01:30:46.066Z,97077.19
2023-05-05T01:33:15.433Z,97080.34
2023-05-05T01:35:52.530Z,97069.13
2023-05-05T01:38:22.404Z,97077.13
2023-05-05T01:40:52.030Z,97074.75
2023-05-05T01:43:20.211Z,97074.53
2023-05-05T01:45:47.430Z,97063.00
2023-05-05T01:48:16.430Z,97069.66
2023-05-05T01:50:43.476Z,97061.88
2023-05-05T01:53:10.486Z,97071.28
2023-05-05T01:55:37.486Z,97063.03
2023-05-05T01:58:04.864Z,97069.75
2023-05-05T02:00:32.187Z,97068.16
2023-05-05T02:02:59.980Z,97061.19
2023-05-05T02:05:27.212Z,97056.13
2023-05-05T02:07:56.847Z,97063.06
2023-05-05T02:10:24.287Z,97058.50
2023-05-05T02:12:51.520Z,97062.25
2023-05-05T02:15:18.889Z,97065.78
2023-05-05T02:17:45.865Z,97068.16
2023-05-05T02:20:13.188Z,97071.84
2023-05-05T02:22:40.459Z,97074.25
2023-05-05T02:25:08.206Z,97066.53
2023-05-05T02:27:35.626Z,97072.97
2023-05-05T02:30:05.037Z,97063.94
2023-05-05T02:32:34.914Z,97074.59
2023-05-05T02:35:07.351Z,97069.47
2023-05-05T02:37:36.560Z,97078.09
2023-05-05T02:40:05.457Z,97084.25
2023-05-05T02:42:39.514Z,97079.44
2023-05-05T02:45:14.563Z,97073.31
2023-05-05T02:47:45.428Z,97079.75
2023-05-05T02:50:12.933Z,97073.59
2023-05-05T02:52:46.067Z,97079.19
2023-05-05T02:55:15.606Z,97086.97
2023-05-05T02:58:06.790Z,97085.09
2023-05-05T03:00:58.174Z,97082.66
2023-05-05T03:03:46.896Z,97082.97
2023-05-05T03:06:21.275Z,97075.00
2023-05-05T03:09:34.798Z,97081.69
2023-05-05T03:12:06.725Z,97090.25
2023-05-05T03:14:44.051Z,97089.19
2023-05-05T03:17:14.298Z,97080.09
2023-05-05T03:19:42.069Z,97085.69
2023-05-05T03:22:09.171Z,97079.25
2023-05-05T03:24:37.836Z,97081.13
2023-05-05T03:27:08.621Z,97079.53
2023-05-05T03:29:38.492Z,97078.19
2023-05-05T03:32:09.666Z,97080.03
2023-05-05T03:34:37.916Z,97076.31
2023-05-05T03:37:06.090Z,97072.00
2023-05-05T03:39:33.449Z,97079.25
2023-05-05T03:42:00.794Z,97078.00
2023-05-05T03:44:31.615Z,97079.09
2023-05-05T03:46:58.659Z,97082.81
2023-05-05T03:49:26.878Z,97079.34
2023-05-05T03:51:54.352Z,97079.09
2023-05-05T03:54:21.410Z,97079.06
2023-05-05T03:56:48.381Z,97068.38
2023-05-05T03:59:16.087Z,97069.47
2023-05-05T04:01:45.139Z,97072.16
2023-05-05T04:04:12.477Z,97063.84
2023-05-05T04:06:39.583Z,97057.19
2023-05-05T04:09:07.273Z,97062.28
2023-05-05T04:11:34.277Z,97067.06
2023-05-05T04:14:01.388Z,97064.63
2023-05-05T04:16:31.143Z,97060.34
2023-05-05T04:18:59.330Z,97065.16
2023-05-05T04:21:27.201Z,97069.97
2023-05-05T04:23:54.295Z,97068.91
2023-05-05T04:26:22.291Z,97068.91
2023-05-05T04:28:49.674Z,97068.59
2023-05-05T04:31:18.230Z,97072.59
2023-05-05T04:33:46.427Z,97074.81
2023-05-05T04:36:14.125Z,97077.44
2023-05-05T04:38:41.696Z,97080.56
2023-05-05T04:41:08.781Z,97087.47
2023-05-05T04:43:37.882Z,97085.25
2023-05-05T04:46:05.210Z,97079.28
2023-05-05T04:48:34.510Z,97083.53
2023-05-05T04:51:07.117Z,97093.06
2023-05-05T04:53:34.857Z,97089.91
2023-05-05T04:56:02.182Z,97094.50
2023-05-05T04:58:29.230Z,97098.78
2023-05-05T05:00:56.304Z,97100.22
2023-05-05T05:03:23.537Z,97094.22
2023-05-05T05:05:50.714Z,97106.31
2023-05-05T05:08:17.873Z,97100.19
2023-05-05T05:10:45.031Z,97102.78
2023-05-05T05:13:12.852Z,97107.13
2023-05-05T05:15:40.857Z,97109.09
2023-05-05T05:18:08.154Z,97115.59
2023-05-05T05:20:35.424Z,97114.69
2023-05-05T05:23:02.557Z,97111.66
2023-05-05T05:25:31.116Z,97118.84
2023-05-05T05:28:08.914Z,97114.53
2023-05-05T05:30:41.425Z,97114.81
2023-05-05T05:33:10.791Z,97117.13
2023-05-05T05:35:38.734Z,97113.91
2023-05-05T05:38:06.450Z,97115.59
2023-05-05T05:40:33.800Z,97114.25
2023-05-05T05:43:01.060Z,97114.63
2023-05-05T05:45:28.739Z,97117.94
2023-05-05T05:47:55.914Z,97121.78
2023-05-05T05:50:24.540Z,97116.53
2023-05-05T05:52:51.934Z,97114.94
2023-05-05T05:55:19.531Z,97114.69
2023-05-05T05:57:46.509Z,97118.03
2023-05-05T06:00:15.850Z,97120.81
2023-05-05T06:02:48.372Z,97127.78
2023-05-05T06:05:18.780Z,97121.69
2023-05-05T06:07:47.010Z,97136.69
2023-05-05T06:10:26.560Z,97128.88
2023-05-05T06:12:59.710Z,97127.00
2023-05-05T06:15:26.989Z,97139.81
2023-05-05T06:17:54.240Z,97127.72
2023-05-05T06:20:22.490Z,97133.56
2023-05-05T06:22:49.561Z,97142.75
2023-05-05T06:25:17.210Z,97134.94
2023-05-05T06:27:44.810Z,97145.91
2023-05-05T06:30:12.224Z,97141.84
2023-05-05T06:32:39.418Z,97148.56
2023-05-05T06:35:07.261Z,97143.06
2023-05-05T06:37:34.271Z,97150.75
2023-05-05T06:40:01.379Z,97143.75
2023-05-05T06:42:28.579Z,97147.28
2023-05-05T06:44:58.189Z,97143.31
2023-05-05T06:47:25.439Z,97147.16
2023-05-05T06:49:52.411Z,97147.94
2023-05-05T06:52:19.456Z,97148.38
2023-05-05T06:54:46.397Z,97149.50
2023-05-05T06:57:13.419Z,97150.28
2023-05-05T06:59:40.476Z,97143.53
2023-05-05T07:02:07.602Z,97139.59
2023-05-05T07:04:34.676Z,97134.81
2023-05-05T07:07:01.952Z,97134.41
2023-05-05T07:09:29.031Z,97136.22
2023-05-05T07:11:56.099Z,97130.72
2023-05-05T07:14:24.496Z,97131.06
2023-05-05T07:16:51.750Z,97134.59
2023-05-05T07:19:18.830Z,97129.63
2023-05-05T07:21:47.329Z,97123.53
2023-05-05T07:24:14.281Z,97121.44
2023-05-05T07:26:41.267Z,97125.75
2023-05-05T07:29:08.214Z,97120.69
2023-05-05T07:31:35.249Z,97122.22
2023-05-05T07:34:02.237Z,97116.94
2023-05-05T07:36:29.277Z,97126.22
2023-05-05T07:38:56.323Z,97124.78
2023-05-05T07:41:23.742Z,97116.28
2023-05-05T07:43:51.011Z,97110.94
2023-05-05T07:46:18.375Z,97121.69
2023-05-05T07:48:45.544Z,97119.53
2023-05-05T07:51:12.587Z,97117.66
2023-05-05T07:53:41.098Z,97115.97
2023-05-05T07:56:09.068Z,97118.50
2023-05-05T07:58:36.338Z,97117.53
2023-05-05T08:01:06.034Z,97110.03
2023-05-05T08:03:33.420Z,97112.28
2023-05-05T08:06:06.796Z,97108.81
2023-05-05T08:08:33.877Z,97112.88
2023-05-05T08:11:01.351Z,97111.59
2023-05-05T08:13:28.767Z,97119.22
2023-05-05T08:15:56.330Z,97117.38
2023-05-05T08:18:24.530Z,97120.00
2023-05-05T08:20:52.992Z,97123.75
2023-05-05T08:23:20.078Z,97119.00
2023-05-05T08:25:47.124Z,97110.91
2023-05-05T08:28:14.090Z,97109.13
2023-05-05T08:30:41.460Z,97117.66
2023-05-05T08:33:08.530Z,97111.50
2023-05-05T08:35:35.486Z,97112.72
2023-05-05T08:38:02.570Z,97126.88
2023-05-05T08:40:33.048Z,97123.53
2023-05-05T08:43:01.021Z,97114.44
2023-05-05T08:45:31.201Z,97112.25
2023-05-05T08:48:02.917Z,97120.78
2023-05-05T08:50:30.462Z,97117.56
2023-05-05T08:53:03.278Z,97115.59
2023-05-05T08:55:34.301Z,97116.75
2023-05-05T08:58:04.213Z,97106.41
2023-05-05T09:00:31.343Z,97109.06
2023-05-05T09:02:59.185Z,97112.47
2023-05-05T09:05:26.575Z,97119.03
2023-05-05T09:07:53.579Z,97117.41
2023-05-05T09:10:21.041Z,97123.78
2023-05-05T09:12:50.448Z,97111.88
2023-05-05T09:15:17.458Z,97112.69
2023-05-05T09:17:44.667Z,97118.59
2023-05-05T09:20:12.749Z,97106.81
2023-05-05T09:22:47.024Z,97106.22
2023-05-05T09:25:15.166Z,97108.28
2023-05-05T09:27:43.501Z,97106.28
2023-05-05T09:30:11.120Z,97104.34
2023-05-05T09:32:49.885Z,97106.22
2023-05-05T09:35:17.491Z,97097.41
2023-05-05T09:37:44.543Z,97093.88
2023-05-05T09:40:13.312Z,97097.28
2023-05-05T09:42:40.547Z,97100.06
2023-05-05T09:45:27.950Z,97095.03
2023-05-05T09:47:59.839Z,97092.34
2023-05-05T09:50:30.424Z,97092.56
2023-05-05T09:52:58.613Z,97109.25
2023-05-05T09:55:26.009Z,97095.91
2023-05-05T09:57:53.155Z,97105.69
2023-05-05T10:00:20.615Z,97100.41
2023-05-05T10:02:47.619Z,97108.88
2023-05-05T10:05:16.028Z,97096.81
2023-05-05T10:07:44.710Z,97104.75
2023-05-05T10:10:16.679Z,97096.56
2023-05-05T10:12:44.249Z,97095.94
2023-05-05T10:15:11.739Z,97098.25
2023-05-05T10:20:18.702Z,97098.53
2023-05-05T10:22:53.447Z,97088.72
2023-05-05T10:25:29.756Z,97081.56
2023-05-05T10:27:59.388Z,97076.03
2023-05-05T10:30:31.873Z,97081.50
2023-05-05T10:33:22.665Z,97075.66
2023-05-05T10:35:51.685Z,97079.84
2023-05-05T10:38:18.665Z,97071.53
2023-05-05T10:40:46.004Z,97079.81
2023-05-05T10:43:14.223Z,97065.00
2023-05-05T10:45:41.890Z,97071.53
2023-05-05T10:48:19.012Z,97062.84
2023-05-05T10:50:49.967Z,97065.88
2023-05-05T10:53:28.883Z,97062.47
2023-05-05T10:56:06.532Z,97064.78
2023-05-05T10:58:43.728Z,97056.09
2023-05-05T11:01:34.992Z,97046.41
2023-05-05T11:04:17.271Z,97048.38
2023-05-05T11:07:11.801Z,97043.31
2023-05-05T11:10:14.662Z,97038.94
2023-05-05T11:13:02.956Z,97030.84
2023-05-05T11:15:30.400Z,97031.16
2023-05-05T11:18:03.204Z,97034.22
2023-05-05T11:20:40.889Z,97027.84
2023-05-05T11:23:07.902Z,97025.75
2023-05-05T11:25:39.125Z,97013.53
2023-05-05T11:28:12.071Z,97021.69
2023-05-05T11:31:17.746Z,97011.44
2023-05-05T11:33:44.979Z,97011.16
2023-05-05T11:36:15.730Z,96999.28
2023-05-05T11:39:01.664Z,96997.56
2023-05-05T11:41:32.057Z,97008.66
2023-05-05T11:44:18.281Z,96999.56
2023-05-05T11:46:51.366Z,96997.03
2023-05-05T11:49:27.945Z,96996.31
2023-05-05T11:51:58.016Z,96997.56
2023-05-05T11:54:25.401Z,96993.25
2023-05-05T11:56:53.851Z,96996.59
2023-05-05T11:59:21.056Z,96989.53
2023-05-05T12:01:48.031Z,96989.69
2023-05-05T12:04:15.372Z,96986.78
2023-05-05T12:06:42.709Z,96987.13
2023-05-05T12:09:16.179Z,96977.59
2023-05-05T12:11:49.938Z,96979.13
2023-05-05T12:14:17.028Z,96978.91
2023-05-05T12:17:13.090Z,96980.47
2023-05-05T12:19:53.565Z,96973.59
2023-05-05T12:22:27.064Z,96968.31
2023-05-05T12:24:55.130Z,96961.22
2023-05-05T12:27:22.344Z,96970.31
2023-05-05T12:29:49.430Z,96961.22
2023-05-05T12:32:29.315Z,96956.19
2023-05-05T12:34:57.595Z,96961.31
2023-05-05T12:37:25.624Z,96950.38
2023-05-05T12:39:54.905Z,96956.84
2023-05-05T12:42:22.280Z,96947.78
2023-05-05T12:44:49.298Z,96949.53
2023-05-05T12:47:30.479Z,96949.25
2023-05-05T12:49:57.739Z,96943.41
2023-05-05T12:52:24.742Z,96939.38
2023-05-05T12:55:00.630Z,96931.97
2023-05-05T12:57:27.657Z,96928.50
2023-05-05T12:59:54.701Z,96932.72
2023-05-05T13:02:21.753Z,96937.19
2023-05-05T13:04:53.296Z,96935.88
2023-05-05T13:07:21.330Z,96925.72
2023-05-05T13:09:49.078Z,96924.97
2023-05-05T13:12:18.561Z,96925.06
2023-05-05T13:14:46.726Z,96917.56
2023-05-05T13:17:14.122Z,96915.88
2023-05-05T13:19:46.624Z,96912.59
2023-05-05T13:22:13.851Z,96920.78
2023-05-05T13:24:50.676Z,96909.16
2023-05-05T13:27:19.353Z,96912.38
2023-05-05T13:29:46.784Z,96905.28
2023-05-05T13:32:13.829Z,96895.56
2023-05-05T13:34:41.567Z,96899.53
2023-05-05T13:37:08.804Z,96893.00
2023-05-05T13:39:36.987Z,96887.19
2023-05-05T13:42:04.202Z,96882.69
2023-05-05T13:44:31.475Z,96881.06
2023-05-05T13:46:58.647Z,96878.88
2023-05-05T13:49:25.839Z,96871.25
2023-05-05T13:51:52.837Z,96867.84
2023-05-05T13:54:19.844Z,96866.22
2023-05-05T13:56:47.028Z,96866.91
2023-05-05T13:59:14.109Z,96862.72
2023-05-05T14:01:41.339Z,96853.66
2023-05-05T14:04:08.537Z,96862.16
2023-05-05T14:06:36.260Z,96859.59
2023-05-05T14:09:05.932Z,96848.34
2023-05-05T14:11:33.327Z,96853.00
2023-05-05T14:14:00.761Z,96850.22
2023-05-05T14:16:27.761Z,96850.56
2023-05-05T14:18:54.767Z,96845.78
2023-05-05T14:21:23.719Z,96844.81
2023-05-05T14:23:51.166Z,96840.16
2023-05-05T14:26:18.173Z,96844.53
2023-05-05T14:28:46.729Z,96842.69
2023-05-05T14:31:15.330Z,96834.34
2023-05-05T14:33:45.331Z,96845.53
2023-05-05T14:36:12.669Z,96843.06
2023-05-05T14:38:39.676Z,96843.16
2023-05-05T14:41:06.769Z,96837.88
2023-05-05T14:43:33.801Z,96843.94
2023-05-05T14:46:05.784Z,96846.38
2023-05-05T14:48:33.736Z,96841.00
2023-05-05T14:51:00.827Z,96841.88
2023-05-05T14:53:27.773Z,96832.31
2023-05-05T14:55:54.968Z,96834.25
2023-05-05T14:58:24.623Z,96834.44
2023-05-05T15:00:52.893Z,96831.75
2023-05-05T15:03:20.047Z,96824.28
2023-05-05T15:05:47.149Z,96823.78
2023-05-05T15:08:14.634Z,96824.66
2023-05-05T15:10:41.572Z,96822.00
2023-05-05T15:13:08.754Z,96820.81
2023-05-05T15:15:35.972Z,96815.50
2023-05-05T15:18:03.074Z,96822.91
2023-05-05T15:20:30.065Z,96819.22
2023-05-05T15:22:57.344Z,96831.81
2023-05-05T15:25:24.326Z,96820.69
2023-05-05T15:27:51.535Z,96810.94
2023-05-05T15:30:18.537Z,96810.56
2023-05-05T15:32:45.641Z,96815.31
2023-05-05T15:35:13.024Z,96808.63
2023-05-05T15:37:40.908Z,96815.63
2023-05-05T15:40:08.661Z,96808.78
2023-05-05T15:42:35.891Z,96808.53
2023-05-05T15:45:03.040Z,96803.47
2023-05-05T15:47:31.387Z,96803.16
2023-05-05T15:49:58.358Z,96801.38
2023-05-05T15:52:25.424Z,96796.06
2023-05-05T15:54:52.449Z,96794.50
2023-05-05T15:57:19.548Z,96796.78
2023-05-05T15:59:46.576Z,96793.81
2023-05-05T16:02:13.727Z,96802.94
2023-05-05T16:04:40.804Z,96799.56
2023-05-05T16:07:07.784Z,96790.22
2023-05-05T16:09:34.765Z,96803.22
2023-05-05T16:12:02.765Z,96797.22
2023-05-05T16:14:32.194Z,96788.63
2023-05-05T16:16:59.334Z,96799.94
2023-05-05T16:19:30.158Z,96792.25
2023-05-05T16:21:57.231Z,96800.50
2023-05-05T16:24:24.218Z,96790.31
2023-05-05T16:26:51.550Z,96785.47
2023-05-05T16:29:18.637Z,96790.78
2023-05-05T16:31:45.676Z,96785.00
2023-05-05T16:34:12.714Z,96783.44
2023-05-05T16:36:39.703Z,96779.25
2023-05-05T16:39:07.097Z,96780.06
2023-05-05T16:41:34.475Z,96788.44
2023-05-05T16:44:01.480Z,96783.34
2023-05-05T16:46:28.485Z,96792.25
2023-05-05T16:48:55.733Z,96794.28
2023-05-05T16:51:22.723Z,96793.41
2023-05-05T16:53:49.901Z,96790.47
2023-05-05T16:56:16.914Z,96797.56
2023-05-05T16:58:43.940Z,96793.44
2023-05-05T17:01:11.022Z,96790.41
2023-05-05T17:03:39.129Z,96782.09
2023-05-05T17:06:06.217Z,96782.00
2023-05-05T17:08:33.212Z,96787.16
2023-05-05T17:11:00.258Z,96782.66
2023-05-05T17:13:27.306Z,96776.31
2023-05-05T17:15:54.327Z,96777.81
2023-05-05T17:18:22.788Z,96768.84
2023-05-05T17:20:50.268Z,96770.03
2023-05-05T17:23:17.320Z,96769.84
2023-05-05T17:25:44.364Z,96775.44
2023-05-05T17:28:11.807Z,96779.88
2023-05-05T17:30:38.748Z,96783.84
2023-05-05T17:33:05.761Z,96781.19
2023-05-05T17:35:32.945Z,96782.34
2023-05-05T17:37:59.944Z,96776.03
2023-05-05T17:40:27.126Z,96783.63
2023-05-05T17:42:54.441Z,96773.78
2023-05-05T17:45:21.411Z,96767.88
2023-05-05T17:47:48.527Z,96768.69
2023-05-05T17:50:15.500Z,96774.34
2023-05-05T17:52:45.083Z,96770.25
2023-05-05T17:55:12.673Z,96771.13
2023-05-05T17:57:39.862Z,96761.66
2023-05-05T18:00:07.374Z,96762.22
2023-05-05T18:02:40.555Z,96755.72
2023-05-05T18:05:08.763Z,96763.09
2023-05-05T18:07:36.010Z,96751.81
2023-05-05T18:10:03.036Z,96747.94
2023-05-05T18:12:30.660Z,96735.25
2023-05-05T18:14:57.653Z,96740.50
2023-05-05T18:17:24.613Z,96737.31
2023-05-05T18:19:51.648Z,96731.19
2023-05-05T18:22:18.630Z,96724.94
2023-05-05T18:24:46.457Z,96704.66
2023-05-05T18:27:13.452Z,96693.66
2023-05-05T18:29:40.536Z,96702.56
2023-05-05T18:32:07.561Z,96702.47
2023-05-05T18:34:34.766Z,96709.25
2023-05-05T18:37:02.015Z,96711.53
2023-05-05T18:39:29.166Z,96720.19
2023-05-05T18:41:56.300Z,96726.94
2023-05-05T18:44:23.384Z,96730.09
2023-05-05T18:46:50.678Z,96737.25
2023-05-05T18:49:17.743Z,96748.81
2023-05-05T18:51:44.881Z,96761.69
2023-05-05T18:54:12.023Z,96761.78
2023-05-05T18:56:39.072Z,96768.97
2023-05-05T18:59:06.217Z,96768.75
2023-05-05T19:01:33.364Z,96777.47
2023-05-05T19:04:00.868Z,96773.69
2023-05-05T19:06:28.051Z,96784.84
2023-05-05T19:08:56.797Z,96795.38
2023-05-05T19:11:24.296Z,96798.44
2023-05-05T19:13:51.442Z,96792.94
2023-05-05T19:16:18.577Z,96793.84
2023-05-05T19:18:45.971Z,96800.22
2023-05-05T19:21:13.024Z,96824.28
2023-05-05T19:23:41.033Z,96862.28
2023-05-05T19:26:08.155Z,96878.56
2023-05-05T19:28:35.256Z,96878.34
2023-05-05T19:31:02.343Z,96881.41
2023-05-05T19:33:29.442Z,96898.13
2023-05-05T19:35:56.638Z,96920.69
2023-05-05T19:38:23.866Z,96927.22
2023-05-05T19:40:51.123Z,96935.72
2023-05-05T19:43:18.482Z,96929.06
2023-05-05T19:45:46.280Z,96947.13
2023-05-05T19:48:13.439Z,96951.59
2023-05-05T19:50:40.782Z,96944.81
2023-05-05T19:53:08.093Z,96953.44
2023-05-05T19:55:35.737Z,96971.72
2023-05-05T19:58:02.833Z,96973.69
2023-05-05T20:00:30.122Z,96970.00
2023-05-05T20:02:57.475Z,96975.47
2023-05-05T20:05:24.737Z,96982.69
2023-05-05T20:07:51.990Z,96985.00
2023-05-05T20:10:19.205Z,96974.13
2023-05-05T20:12:48.336Z,96977.56
2023-05-05T20:15:19.685Z,96975.63
2023-05-05T20:17:47.558Z,96978.03
2023-05-05T20:20:20.384Z,96973.78
2023-05-05T20:22:47.671Z,96972.25
2023-05-05T20:25:18.028Z,96973.22
2023-05-05T20:27:45.917Z,96960.53
2023-05-05T20:30:13.449Z,96954.53
2023-05-05T20:32:41.497Z,96937.97
2023-05-05T20:35:09.290Z,96946.66
2023-05-05T20:37:36.390Z,96966.13
2023-05-05T20:40:07.840Z,96975.44
2023-05-05T20:42:35.425Z,96981.13
2023-05-05T20:45:02.559Z,96988.16
2023-05-05T20:47:30.072Z,96997.28
2023-05-05T20:49:57.429Z,96998.00
2023-05-05T20:52:24.459Z,97001.63
2023-05-05T20:54:51.506Z,96999.84
2023-05-05T20:57:18.555Z,96986.38
2023-05-05T20:59:45.954Z,96959.69
2023-05-05T21:02:13.148Z,96917.63
2023-05-05T21:04:40.203Z,96927.09
2023-05-05T21:07:07.326Z,96953.34
2023-05-05T21:09:37.437Z,96959.31
2023-05-05T21:12:04.722Z,96986.94
2023-05-05T21:14:31.737Z,97015.84
2023-05-05T21:16:58.910Z,97016.75
2023-05-05T21:19:25.980Z,97021.22
2023-05-05T21:21:53.756Z,97017.25
2023-05-05T21:24:21.266Z,97023.44
2023-05-05T21:26:48.492Z,97029.38
2023-05-05T21:29:15.554Z,97030.16
2023-05-05T21:31:42.579Z,97034.06
2023-05-05T21:34:09.559Z,97027.03
2023-05-05T21:36:37.169Z,97027.03
2023-05-05T21:39:04.226Z,97037.72
2023-05-05T21:41:31.252Z,97022.41
2023-05-05T21:43:58.429Z,97024.59
2023-05-05T21:46:25.455Z,97027.97
2023-05-05T21:48:52.543Z,97027.09
2023-05-05T21:51:19.928Z,97028.41
2023-05-05T21:53:46.977Z,97018.13
2023-05-05T21:56:14.119Z,97016.22
2023-05-05T21:58:41.230Z,97021.41
2023-05-05T22:01:08.420Z,97009.84
2023-05-05T22:03:35.978Z,97016.16
2023-05-05T22:06:21.649Z,97012.63
2023-05-05T22:09:07.720Z,97014.72
2023-05-05T22:11:34.718Z,97015.66
2023-05-05T22:14:01.704Z,97015.53
2023-05-05T22:16:28.916Z,97025.78
2023-05-05T22:18:55.933Z,97027.63
2023-05-05T22:21:22.931Z,97025.69
2023-05-05T22:23:50.130Z,97025.31
2023-05-05T22:26:17.182Z,97022.09
2023-05-05T22:28:44.122Z,97030.16
2023-05-05T22:31:11.659Z,97027.72
2023-05-05T22:33:38.656Z,97032.94
2023-05-05T22:36:05.911Z,97026.84
2023-05-05T22:38:32.897Z,97037.97
2023-05-05T22:41:00.130Z,97037.97
2023-05-05T22:43:27.126Z,97032.00
2023-05-05T22:45:54.340Z,97026.78
2023-05-05T22:48:21.731Z,97026.13
2023-05-05T22:50:48.858Z,97025.72
2023-05-05T22:53:15.818Z,97035.69
2023-05-05T22:55:43.309Z,97033.63
2023-05-05T22:58:10.353Z,97033.91
2023-05-05T23:00:37.369Z,97034.06
2023-05-05T23:03:04.424Z,97023.63
2023-05-05T23:05:31.487Z,97030.47
2023-05-05T23:08:01.198Z,97029.31
2023-05-05T23:10:29.069Z,97035.47
2023-05-05T23:12:56.127Z,97030.97
2023-05-05T23:15:23.899Z,97026.97
2023-05-05T23:17:51.892Z,97029.88
2023-05-05T23:20:19.294Z,97026.38
2023-05-05T23:22:46.234Z,97024.81
2023-05-05T23:25:13.185Z,97030.19
2023-05-05T23:27:41.110Z,97022.75
2023-05-05T23:30:09.153Z,97024.34
2023-05-05T23:32:36.502Z,97023.72
2023-05-05T23:35:04.221Z,97021.47
2023-05-05T23:37:31.290Z,97020.38
2023-05-05T23:39:58.303Z,97027.53
2023-05-05T23:42:25.436Z,97023.56
2023-05-05T23:44:52.850Z,97027.16
2023-05-05T23:47:19.936Z,97012.56
2023-05-05T23:49:47.231Z,97015.59
2023-05-05T23:52:14.291Z,97013.84
2023-05-05T23:54:41.565Z,97013.19
2023-05-05T23:57:08.592Z,97014.31
2023-05-05T23:59:35.632Z,97009.06
